sensor_id;sensor_type;location;lat;lon;timestamp;temperature;humidity
59923;DHT22;45778;51.142;3.732;2023-08-24T00:01:10;20.60;99.90
59923;DHT22;45778;51.142;3.732;2023-08-24T00:03:37;20.60;99.90
59923;DHT22;45778;51.142;3.732;2023-08-24T00:06:03;20.50;99.90
59923;DHT22;45778;51.142;3.732;2023-08-24T00:08:29;20.50;99.90
59923;DHT22;45778;51.142;3.732;2023-08-24T00:10:54;20.60;99.90
59923;DHT22;45778;51.142;3.732;2023-08-24T00:13:20;20.50;99.90
59923;DHT22;45778;51.142;3.732;2023-08-24T00:15:46;20.50;99.90
59923;DHT22;45778;51.142;3.732;2023-08-24T00:18:12;20.50;99.90
59923;DHT22;45778;51.142;3.732;2023-08-24T00:20:37;20.50;99.90
59923;DHT22;45778;51.142;3.732;2023-08-24T00:23:03;20.50;99.90
59923;DHT22;45778;51.142;3.732;2023-08-24T00:25:32;20.40;99.90
59923;DHT22;45778;51.142;3.732;2023-08-24T00:27:57;20.50;99.90
59923;DHT22;45778;51.142;3.732;2023-08-24T00:30:23;20.60;99.90
59923;DHT22;45778;51.142;3.732;2023-08-24T00:32:49;20.40;99.90
59923;DHT22;45778;51.142;3.732;2023-08-24T00:35:15;20.30;99.90
59923;DHT22;45778;51.142;3.732;2023-08-24T00:37:41;20.40;99.90
59923;DHT22;45778;51.142;3.732;2023-08-24T00:40:07;20.40;99.90
59923;DHT22;45778;51.142;3.732;2023-08-24T00:42:43;20.50;99.90
59923;DHT22;45778;51.142;3.732;2023-08-24T00:45:11;20.50;99.90
59923;DHT22;45778;51.142;3.732;2023-08-24T00:47:39;20.60;99.90
59923;DHT22;45778;51.142;3.732;2023-08-24T00:50:07;20.60;99.90
59923;DHT22;45778;51.142;3.732;2023-08-24T00:52:33;20.50;99.90
59923;DHT22;45778;51.142;3.732;2023-08-24T00:55:01;20.50;99.90
59923;DHT22;45778;51.142;3.732;2023-08-24T00:57:28;20.50;99.90
59923;DHT22;45778;51.142;3.732;2023-08-24T00:59:57;20.40;99.90
59923;DHT22;45778;51.142;3.732;2023-08-24T01:02:24;20.40;99.90
59923;DHT22;45778;51.142;3.732;2023-08-24T01:04:50;20.50;99.90
59923;DHT22;45778;51.142;3.732;2023-08-24T01:07:16;20.60;99.90
59923;DHT22;45778;51.142;3.732;2023-08-24T01:09:42;20.50;99.90
59923;DHT22;45778;51.142;3.732;2023-08-24T01:15:13;20.60;99.90
59923;DHT22;45778;51.142;3.732;2023-08-24T01:17:43;20.50;99.90
59923;DHT22;45778;51.142;3.732;2023-08-24T01:20:10;20.50;99.90
59923;DHT22;45778;51.142;3.732;2023-08-24T01:23:06;20.50;99.90
59923;DHT22;45778;51.142;3.732;2023-08-24T01:25:45;20.70;99.90
59923;DHT22;45778;51.142;3.732;2023-08-24T01:28:13;20.80;99.90
59923;DHT22;45778;51.142;3.732;2023-08-24T01:30:39;20.70;99.90
59923;DHT22;45778;51.142;3.732;2023-08-24T01:33:05;20.60;99.90
59923;DHT22;45778;51.142;3.732;2023-08-24T01:35:31;20.60;99.90
59923;DHT22;45778;51.142;3.732;2023-08-24T01:38:00;20.70;99.90
59923;DHT22;45778;51.142;3.732;2023-08-24T01:40:44;20.60;99.90
59923;DHT22;45778;51.142;3.732;2023-08-24T01:43:13;20.60;99.90
59923;DHT22;45778;51.142;3.732;2023-08-24T01:45:41;20.50;99.90
59923;DHT22;45778;51.142;3.732;2023-08-24T01:48:09;20.30;99.90
59923;DHT22;45778;51.142;3.732;2023-08-24T01:50:36;20.40;99.90
59923;DHT22;45778;51.142;3.732;2023-08-24T01:53:02;20.30;99.90
59923;DHT22;45778;51.142;3.732;2023-08-24T01:55:28;20.00;99.90
59923;DHT22;45778;51.142;3.732;2023-08-24T01:57:56;19.90;99.90
59923;DHT22;45778;51.142;3.732;2023-08-24T02:00:22;19.70;99.90
59923;DHT22;45778;51.142;3.732;2023-08-24T02:02:48;19.70;99.90
59923;DHT22;45778;51.142;3.732;2023-08-24T02:05:14;19.80;99.90
59923;DHT22;45778;51.142;3.732;2023-08-24T02:07:40;19.60;99.90
59923;DHT22;45778;51.142;3.732;2023-08-24T02:10:06;19.70;99.90
59923;DHT22;45778;51.142;3.732;2023-08-24T02:12:32;19.60;99.90
59923;DHT22;45778;51.142;3.732;2023-08-24T02:14:58;19.50;99.90
59923;DHT22;45778;51.142;3.732;2023-08-24T02:17:24;19.60;99.90
59923;DHT22;45778;51.142;3.732;2023-08-24T02:19:51;19.50;99.90
59923;DHT22;45778;51.142;3.732;2023-08-24T02:22:16;19.40;99.90
59923;DHT22;45778;51.142;3.732;2023-08-24T02:24:43;19.30;99.90
59923;DHT22;45778;51.142;3.732;2023-08-24T02:27:08;19.20;99.90
59923;DHT22;45778;51.142;3.732;2023-08-24T02:29:34;19.20;99.90
59923;DHT22;45778;51.142;3.732;2023-08-24T02:31:59;19.10;99.90
59923;DHT22;45778;51.142;3.732;2023-08-24T02:34:25;19.20;99.90
59923;DHT22;45778;51.142;3.732;2023-08-24T02:36:51;19.20;99.90
59923;DHT22;45778;51.142;3.732;2023-08-24T02:39:17;19.20;99.90
59923;DHT22;45778;51.142;3.732;2023-08-24T02:41:43;19.10;99.90
59923;DHT22;45778;51.142;3.732;2023-08-24T02:44:08;19.10;99.90
59923;DHT22;45778;51.142;3.732;2023-08-24T02:46:34;19.20;99.90
59923;DHT22;45778;51.142;3.732;2023-08-24T02:49:00;19.20;99.90
59923;DHT22;45778;51.142;3.732;2023-08-24T02:51:25;19.20;99.90
59923;DHT22;45778;51.142;3.732;2023-08-24T02:53:51;19.30;99.90
59923;DHT22;45778;51.142;3.732;2023-08-24T02:56:17;19.30;99.90
59923;DHT22;45778;51.142;3.732;2023-08-24T02:58:43;19.20;99.90
59923;DHT22;45778;51.142;3.732;2023-08-24T03:01:08;19.40;99.90
59923;DHT22;45778;51.142;3.732;2023-08-24T03:03:35;19.30;99.90
59923;DHT22;45778;51.142;3.732;2023-08-24T03:06:03;19.20;99.90
59923;DHT22;45778;51.142;3.732;2023-08-24T03:08:30;19.10;99.90
59923;DHT22;45778;51.142;3.732;2023-08-24T03:10:57;19.10;99.90
59923;DHT22;45778;51.142;3.732;2023-08-24T03:13:23;19.10;99.90
59923;DHT22;45778;51.142;3.732;2023-08-24T03:15:49;19.20;99.90
59923;DHT22;45778;51.142;3.732;2023-08-24T03:18:16;19.30;99.90
59923;DHT22;45778;51.142;3.732;2023-08-24T03:20:43;19.20;99.90
59923;DHT22;45778;51.142;3.732;2023-08-24T03:23:09;19.20;99.90
59923;DHT22;45778;51.142;3.732;2023-08-24T03:25:39;19.20;99.90
59923;DHT22;45778;51.142;3.732;2023-08-24T03:28:06;19.10;99.90
59923;DHT22;45778;51.142;3.732;2023-08-24T03:30:34;19.10;99.90
59923;DHT22;45778;51.142;3.732;2023-08-24T03:33:00;19.00;99.90
59923;DHT22;45778;51.142;3.732;2023-08-24T03:35:26;19.10;99.90
59923;DHT22;45778;51.142;3.732;2023-08-24T03:37:52;19.10;99.90
59923;DHT22;45778;51.142;3.732;2023-08-24T03:40:17;19.10;99.90
59923;DHT22;45778;51.142;3.732;2023-08-24T03:42:43;19.10;99.90
59923;DHT22;45778;51.142;3.732;2023-08-24T03:45:09;19.00;99.90
59923;DHT22;45778;51.142;3.732;2023-08-24T03:47:35;19.00;99.90
59923;DHT22;45778;51.142;3.732;2023-08-24T03:50:00;18.90;99.90
59923;DHT22;45778;51.142;3.732;2023-08-24T03:52:26;18.90;99.90
59923;DHT22;45778;51.142;3.732;2023-08-24T03:54:52;18.70;99.90
59923;DHT22;45778;51.142;3.732;2023-08-24T03:57:18;18.60;99.90
59923;DHT22;45778;51.142;3.732;2023-08-24T03:59:43;18.50;99.90
59923;DHT22;45778;51.142;3.732;2023-08-24T04:02:09;18.60;99.90
59923;DHT22;45778;51.142;3.732;2023-08-24T04:04:35;18.70;99.90
59923;DHT22;45778;51.142;3.732;2023-08-24T04:07:01;18.60;99.90
59923;DHT22;45778;51.142;3.732;2023-08-24T04:09:28;18.60;99.90
59923;DHT22;45778;51.142;3.732;2023-08-24T04:11:54;18.50;99.90
59923;DHT22;45778;51.142;3.732;2023-08-24T04:14:20;18.50;99.90
59923;DHT22;45778;51.142;3.732;2023-08-24T04:16:45;18.50;99.90
59923;DHT22;45778;51.142;3.732;2023-08-24T04:19:12;18.40;99.90
59923;DHT22;45778;51.142;3.732;2023-08-24T04:21:38;18.40;99.90
59923;DHT22;45778;51.142;3.732;2023-08-24T04:24:04;18.40;99.90
59923;DHT22;45778;51.142;3.732;2023-08-24T04:26:30;18.30;99.90
59923;DHT22;45778;51.142;3.732;2023-08-24T04:28:56;18.40;99.90
59923;DHT22;45778;51.142;3.732;2023-08-24T04:31:22;18.30;99.90
59923;DHT22;45778;51.142;3.732;2023-08-24T04:33:47;18.30;99.90
59923;DHT22;45778;51.142;3.732;2023-08-24T04:36:13;18.30;99.90
59923;DHT22;45778;51.142;3.732;2023-08-24T04:38:39;18.40;99.90
59923;DHT22;45778;51.142;3.732;2023-08-24T04:41:08;18.40;99.90
59923;DHT22;45778;51.142;3.732;2023-08-24T04:43:34;18.40;99.90
59923;DHT22;45778;51.142;3.732;2023-08-24T04:46:00;18.50;99.90
59923;DHT22;45778;51.142;3.732;2023-08-24T04:48:26;18.50;99.90
59923;DHT22;45778;51.142;3.732;2023-08-24T04:50:52;18.50;99.90
59923;DHT22;45778;51.142;3.732;2023-08-24T04:53:19;18.50;99.90
59923;DHT22;45778;51.142;3.732;2023-08-24T04:55:46;18.50;99.90
59923;DHT22;45778;51.142;3.732;2023-08-24T04:58:12;18.60;99.90
59923;DHT22;45778;51.142;3.732;2023-08-24T05:00:41;18.60;99.90
59923;DHT22;45778;51.142;3.732;2023-08-24T05:03:07;18.60;99.90
59923;DHT22;45778;51.142;3.732;2023-08-24T05:05:34;18.70;99.90
59923;DHT22;45778;51.142;3.732;2023-08-24T05:08:01;18.70;99.90
59923;DHT22;45778;51.142;3.732;2023-08-24T05:10:30;18.70;99.90
59923;DHT22;45778;51.142;3.732;2023-08-24T05:12:56;18.80;99.90
59923;DHT22;45778;51.142;3.732;2023-08-24T05:15:22;18.80;99.90
59923;DHT22;45778;51.142;3.732;2023-08-24T05:17:48;18.90;99.90
59923;DHT22;45778;51.142;3.732;2023-08-24T05:20:13;19.00;99.90
59923;DHT22;45778;51.142;3.732;2023-08-24T05:22:39;19.00;99.90
59923;DHT22;45778;51.142;3.732;2023-08-24T05:25:05;19.00;99.90
59923;DHT22;45778;51.142;3.732;2023-08-24T05:27:31;19.10;99.90
59923;DHT22;45778;51.142;3.732;2023-08-24T05:29:57;19.20;99.90
59923;DHT22;45778;51.142;3.732;2023-08-24T05:32:23;19.10;99.90
59923;DHT22;45778;51.142;3.732;2023-08-24T05:34:48;19.00;99.90
59923;DHT22;45778;51.142;3.732;2023-08-24T05:37:14;19.00;99.90
59923;DHT22;45778;51.142;3.732;2023-08-24T05:39:40;19.20;99.90
59923;DHT22;45778;51.142;3.732;2023-08-24T05:42:06;19.30;99.90
59923;DHT22;45778;51.142;3.732;2023-08-24T05:44:32;19.30;99.90
59923;DHT22;45778;51.142;3.732;2023-08-24T05:46:57;19.50;99.90
59923;DHT22;45778;51.142;3.732;2023-08-24T05:49:23;19.40;99.90
59923;DHT22;45778;51.142;3.732;2023-08-24T05:51:51;19.50;99.90
59923;DHT22;45778;51.142;3.732;2023-08-24T05:54:17;19.60;99.90
59923;DHT22;45778;51.142;3.732;2023-08-24T05:56:46;19.70;99.90
59923;DHT22;45778;51.142;3.732;2023-08-24T05:59:13;19.70;99.90
59923;DHT22;45778;51.142;3.732;2023-08-24T06:01:39;19.90;99.90
59923;DHT22;45778;51.142;3.732;2023-08-24T06:04:05;20.00;99.90
59923;DHT22;45778;51.142;3.732;2023-08-24T06:06:31;20.20;99.90
59923;DHT22;45778;51.142;3.732;2023-08-24T06:08:57;20.20;99.90
59923;DHT22;45778;51.142;3.732;2023-08-24T06:11:22;20.20;99.90
59923;DHT22;45778;51.142;3.732;2023-08-24T06:13:49;20.30;99.90
59923;DHT22;45778;51.142;3.732;2023-08-24T06:16:14;20.50;99.90
59923;DHT22;45778;51.142;3.732;2023-08-24T06:18:40;20.70;99.90
59923;DHT22;45778;51.142;3.732;2023-08-24T06:21:06;20.70;99.90
59923;DHT22;45778;51.142;3.732;2023-08-24T06:23:33;20.70;99.90
59923;DHT22;45778;51.142;3.732;2023-08-24T06:25:59;20.90;99.90
59923;DHT22;45778;51.142;3.732;2023-08-24T06:28:26;21.10;99.90
59923;DHT22;45778;51.142;3.732;2023-08-24T06:30:52;21.50;99.90
59923;DHT22;45778;51.142;3.732;2023-08-24T06:33:20;21.80;99.90
59923;DHT22;45778;51.142;3.732;2023-08-24T06:35:45;22.00;99.90
59923;DHT22;45778;51.142;3.732;2023-08-24T06:38:11;22.10;99.90
59923;DHT22;45778;51.142;3.732;2023-08-24T06:40:37;22.10;99.90
59923;DHT22;45778;51.142;3.732;2023-08-24T06:43:03;22.30;99.90
59923;DHT22;45778;51.142;3.732;2023-08-24T06:45:29;22.40;99.90
59923;DHT22;45778;51.142;3.732;2023-08-24T06:47:55;22.10;99.90
59923;DHT22;45778;51.142;3.732;2023-08-24T06:50:20;22.40;99.90
59923;DHT22;45778;51.142;3.732;2023-08-24T06:52:46;22.50;99.90
59923;DHT22;45778;51.142;3.732;2023-08-24T06:55:12;22.80;99.90
59923;DHT22;45778;51.142;3.732;2023-08-24T06:57:38;23.10;99.90
59923;DHT22;45778;51.142;3.732;2023-08-24T07:00:04;23.30;99.90
59923;DHT22;45778;51.142;3.732;2023-08-24T07:02:35;23.50;99.90
59923;DHT22;45778;51.142;3.732;2023-08-24T07:05:03;23.60;99.90
59923;DHT22;45778;51.142;3.732;2023-08-24T07:07:34;23.60;99.90
59923;DHT22;45778;51.142;3.732;2023-08-24T07:10:00;23.70;99.90
59923;DHT22;45778;51.142;3.732;2023-08-24T07:12:25;23.80;99.90
59923;DHT22;45778;51.142;3.732;2023-08-24T07:14:51;23.90;99.90
59923;DHT22;45778;51.142;3.732;2023-08-24T07:17:17;23.90;99.90
59923;DHT22;45778;51.142;3.732;2023-08-24T07:19:43;23.90;99.90
59923;DHT22;45778;51.142;3.732;2023-08-24T07:22:09;23.70;99.90
59923;DHT22;45778;51.142;3.732;2023-08-24T07:24:35;23.30;99.90
59923;DHT22;45778;51.142;3.732;2023-08-24T07:27:02;23.00;99.90
59923;DHT22;45778;51.142;3.732;2023-08-24T07:29:30;22.80;99.90
59923;DHT22;45778;51.142;3.732;2023-08-24T07:31:57;22.90;99.90
59923;DHT22;45778;51.142;3.732;2023-08-24T07:34:22;22.90;99.90
59923;DHT22;45778;51.142;3.732;2023-08-24T07:36:49;22.60;99.90
59923;DHT22;45778;51.142;3.732;2023-08-24T07:39:15;22.60;99.90
59923;DHT22;45778;51.142;3.732;2023-08-24T07:41:41;22.70;99.90
59923;DHT22;45778;51.142;3.732;2023-08-24T07:44:07;22.90;99.90
59923;DHT22;45778;51.142;3.732;2023-08-24T07:46:33;23.10;99.90
59923;DHT22;45778;51.142;3.732;2023-08-24T07:48:58;23.20;99.90
59923;DHT22;45778;51.142;3.732;2023-08-24T07:51:24;23.10;99.90
59923;DHT22;45778;51.142;3.732;2023-08-24T07:53:50;22.70;99.90
59923;DHT22;45778;51.142;3.732;2023-08-24T07:56:18;22.70;99.90
59923;DHT22;45778;51.142;3.732;2023-08-24T07:58:44;22.50;99.90
59923;DHT22;45778;51.142;3.732;2023-08-24T08:01:10;22.40;99.90
59923;DHT22;45778;51.142;3.732;2023-08-24T08:03:35;22.60;99.90
59923;DHT22;45778;51.142;3.732;2023-08-24T08:06:01;22.70;99.90
59923;DHT22;45778;51.142;3.732;2023-08-24T08:08:27;22.50;99.90
59923;DHT22;45778;51.142;3.732;2023-08-24T08:11:02;22.50;99.90
59923;DHT22;45778;51.142;3.732;2023-08-24T08:13:29;22.40;99.90
59923;DHT22;45778;51.142;3.732;2023-08-24T08:16:01;22.20;99.90
59923;DHT22;45778;51.142;3.732;2023-08-24T08:18:29;22.10;99.90
59923;DHT22;45778;51.142;3.732;2023-08-24T08:20:54;22.20;99.90
59923;DHT22;45778;51.142;3.732;2023-08-24T08:23:20;22.20;99.90
59923;DHT22;45778;51.142;3.732;2023-08-24T08:25:46;22.20;99.90
59923;DHT22;45778;51.142;3.732;2023-08-24T08:28:11;22.20;99.90
59923;DHT22;45778;51.142;3.732;2023-08-24T08:30:37;22.10;99.90
59923;DHT22;45778;51.142;3.732;2023-08-24T08:33:03;22.00;99.90
59923;DHT22;45778;51.142;3.732;2023-08-24T08:35:30;21.90;99.90
59923;DHT22;45778;51.142;3.732;2023-08-24T08:37:55;21.90;99.90
59923;DHT22;45778;51.142;3.732;2023-08-24T08:40:21;22.00;99.90
59923;DHT22;45778;51.142;3.732;2023-08-24T08:42:51;22.10;99.90
59923;DHT22;45778;51.142;3.732;2023-08-24T08:45:19;22.10;99.90
59923;DHT22;45778;51.142;3.732;2023-08-24T08:47:49;22.00;99.90
59923;DHT22;45778;51.142;3.732;2023-08-24T08:50:16;21.80;99.90
59923;DHT22;45778;51.142;3.732;2023-08-24T08:52:41;21.80;99.90
59923;DHT22;45778;51.142;3.732;2023-08-24T08:55:07;21.70;99.90
59923;DHT22;45778;51.142;3.732;2023-08-24T08:57:35;21.70;99.90
59923;DHT22;45778;51.142;3.732;2023-08-24T09:00:02;21.70;99.90
59923;DHT22;45778;51.142;3.732;2023-08-24T09:02:30;21.60;99.90
59923;DHT22;45778;51.142;3.732;2023-08-24T09:04:56;21.50;99.90
59923;DHT22;45778;51.142;3.732;2023-08-24T09:07:22;21.40;99.90
59923;DHT22;45778;51.142;3.732;2023-08-24T09:09:50;21.30;99.90
59923;DHT22;45778;51.142;3.732;2023-08-24T09:12:16;21.10;99.90
59923;DHT22;45778;51.142;3.732;2023-08-24T09:14:42;20.90;99.90
59923;DHT22;45778;51.142;3.732;2023-08-24T09:17:07;20.60;99.90
59923;DHT22;45778;51.142;3.732;2023-08-24T09:19:34;20.50;99.90
59923;DHT22;45778;51.142;3.732;2023-08-24T09:22:04;20.40;99.90
59923;DHT22;45778;51.142;3.732;2023-08-24T09:24:33;20.30;99.90
59923;DHT22;45778;51.142;3.732;2023-08-24T09:27:00;20.30;99.90
59923;DHT22;45778;51.142;3.732;2023-08-24T09:29:36;20.20;99.90
59923;DHT22;45778;51.142;3.732;2023-08-24T09:32:02;20.30;99.90
59923;DHT22;45778;51.142;3.732;2023-08-24T09:34:28;20.40;99.90
59923;DHT22;45778;51.142;3.732;2023-08-24T09:36:56;20.40;99.90
59923;DHT22;45778;51.142;3.732;2023-08-24T09:39:22;20.50;99.90
59923;DHT22;45778;51.142;3.732;2023-08-24T09:41:49;20.50;99.90
59923;DHT22;45778;51.142;3.732;2023-08-24T09:44:19;20.50;99.90
59923;DHT22;45778;51.142;3.732;2023-08-24T09:46:45;20.50;99.90
59923;DHT22;45778;51.142;3.732;2023-08-24T09:49:11;20.40;99.90
59923;DHT22;45778;51.142;3.732;2023-08-24T09:51:39;20.40;99.90
59923;DHT22;45778;51.142;3.732;2023-08-24T09:54:09;20.30;99.90
59923;DHT22;45778;51.142;3.732;2023-08-24T09:56:37;20.20;99.90
59923;DHT22;45778;51.142;3.732;2023-08-24T09:59:10;20.10;99.90
59923;DHT22;45778;51.142;3.732;2023-08-24T10:01:37;20.20;99.90
59923;DHT22;45778;51.142;3.732;2023-08-24T10:04:05;20.30;99.90
59923;DHT22;45778;51.142;3.732;2023-08-24T10:06:32;20.20;99.90
59923;DHT22;45778;51.142;3.732;2023-08-24T10:09:02;20.20;99.90
59923;DHT22;45778;51.142;3.732;2023-08-24T10:11:33;20.20;99.90
59923;DHT22;45778;51.142;3.732;2023-08-24T10:16:29;20.30;99.90
59923;DHT22;45778;51.142;3.732;2023-08-24T10:18:55;20.40;99.90
59923;DHT22;45778;51.142;3.732;2023-08-24T10:21:23;20.40;99.90
59923;DHT22;45778;51.142;3.732;2023-08-24T10:23:52;20.50;99.90
59923;DHT22;45778;51.142;3.732;2023-08-24T10:26:19;20.80;99.90
59923;DHT22;45778;51.142;3.732;2023-08-24T10:28:46;21.20;99.90
59923;DHT22;45778;51.142;3.732;2023-08-24T10:31:13;21.40;99.90
59923;DHT22;45778;51.142;3.732;2023-08-24T10:33:39;21.90;99.90
59923;DHT22;45778;51.142;3.732;2023-08-24T10:36:06;22.40;99.90
59923;DHT22;45778;51.142;3.732;2023-08-24T10:38:35;22.80;99.90
59923;DHT22;45778;51.142;3.732;2023-08-24T10:41:02;23.10;99.90
59923;DHT22;45778;51.142;3.732;2023-08-24T10:43:39;23.30;99.90
59923;DHT22;45778;51.142;3.732;2023-08-24T10:46:11;23.70;99.90
59923;DHT22;45778;51.142;3.732;2023-08-24T10:51:16;24.40;99.90
59923;DHT22;45778;51.142;3.732;2023-08-24T10:54:02;24.60;99.90
59923;DHT22;45778;51.142;3.732;2023-08-24T10:59:14;25.60;99.90
59923;DHT22;45778;51.142;3.732;2023-08-24T11:01:41;26.40;99.90
59923;DHT22;45778;51.142;3.732;2023-08-24T11:04:07;26.70;99.90
59923;DHT22;45778;51.142;3.732;2023-08-24T11:06:51;26.70;99.90
59923;DHT22;45778;51.142;3.732;2023-08-24T11:09:18;26.90;99.90
59923;DHT22;45778;51.142;3.732;2023-08-24T11:11:59;27.00;99.90
59923;DHT22;45778;51.142;3.732;2023-08-24T11:14:25;27.50;99.90
59923;DHT22;45778;51.142;3.732;2023-08-24T11:16:52;27.20;99.90
59923;DHT22;45778;51.142;3.732;2023-08-24T11:19:19;27.20;99.90
59923;DHT22;45778;51.142;3.732;2023-08-24T11:21:46;26.70;99.90
59923;DHT22;45778;51.142;3.732;2023-08-24T11:24:15;26.60;99.90
59923;DHT22;45778;51.142;3.732;2023-08-24T11:26:43;25.90;99.90
59923;DHT22;45778;51.142;3.732;2023-08-24T11:29:09;25.60;99.90
59923;DHT22;45778;51.142;3.732;2023-08-24T11:31:36;25.20;99.90
59923;DHT22;45778;51.142;3.732;2023-08-24T11:34:02;25.50;99.90
59923;DHT22;45778;51.142;3.732;2023-08-24T11:36:30;25.70;99.90
59923;DHT22;45778;51.142;3.732;2023-08-24T11:38:59;26.00;99.90
59923;DHT22;45778;51.142;3.732;2023-08-24T11:41:26;26.00;99.90
59923;DHT22;45778;51.142;3.732;2023-08-24T11:43:59;25.80;99.90
59923;DHT22;45778;51.142;3.732;2023-08-24T11:46:25;25.50;99.90
59923;DHT22;45778;51.142;3.732;2023-08-24T11:48:51;25.10;99.90
59923;DHT22;45778;51.142;3.732;2023-08-24T11:51:18;24.80;99.90
59923;DHT22;45778;51.142;3.732;2023-08-24T11:53:44;24.50;99.90
59923;DHT22;45778;51.142;3.732;2023-08-24T11:56:12;24.40;99.90
59923;DHT22;45778;51.142;3.732;2023-08-24T11:58:41;24.50;99.90
59923;DHT22;45778;51.142;3.732;2023-08-24T12:01:11;24.50;99.90
59923;DHT22;45778;51.142;3.732;2023-08-24T12:03:38;24.50;99.90
59923;DHT22;45778;51.142;3.732;2023-08-24T12:06:15;24.40;99.90
59923;DHT22;45778;51.142;3.732;2023-08-24T12:08:45;24.50;99.90
59923;DHT22;45778;51.142;3.732;2023-08-24T12:11:20;24.40;99.90
59923;DHT22;45778;51.142;3.732;2023-08-24T12:13:50;24.30;99.90
59923;DHT22;45778;51.142;3.732;2023-08-24T12:16:17;24.10;99.90
59923;DHT22;45778;51.142;3.732;2023-08-24T12:19:01;24.30;99.90
59923;DHT22;45778;51.142;3.732;2023-08-24T12:21:30;24.20;99.90
59923;DHT22;45778;51.142;3.732;2023-08-24T12:24:04;24.00;99.90
59923;DHT22;45778;51.142;3.732;2023-08-24T12:26:34;24.20;99.90
59923;DHT22;45778;51.142;3.732;2023-08-24T12:29:02;24.40;99.90
59923;DHT22;45778;51.142;3.732;2023-08-24T12:31:31;24.60;99.90
59923;DHT22;45778;51.142;3.732;2023-08-24T12:34:05;24.70;99.90
59923;DHT22;45778;51.142;3.732;2023-08-24T12:36:37;24.80;99.90
59923;DHT22;45778;51.142;3.732;2023-08-24T12:39:04;25.20;99.90
59923;DHT22;45778;51.142;3.732;2023-08-24T12:41:30;25.60;99.90
59923;DHT22;45778;51.142;3.732;2023-08-24T12:43:56;25.40;99.90
59923;DHT22;45778;51.142;3.732;2023-08-24T12:46:22;25.40;99.90
59923;DHT22;45778;51.142;3.732;2023-08-24T12:48:49;25.30;99.90
59923;DHT22;45778;51.142;3.732;2023-08-24T12:51:15;25.00;99.90
59923;DHT22;45778;51.142;3.732;2023-08-24T12:53:41;25.20;99.90
59923;DHT22;45778;51.142;3.732;2023-08-24T12:56:07;24.90;99.90
59923;DHT22;45778;51.142;3.732;2023-08-24T12:58:33;24.80;99.90
59923;DHT22;45778;51.142;3.732;2023-08-24T13:00:59;24.50;99.90
59923;DHT22;45778;51.142;3.732;2023-08-24T13:03:25;24.20;99.90
59923;DHT22;45778;51.142;3.732;2023-08-24T13:05:51;24.40;99.90
59923;DHT22;45778;51.142;3.732;2023-08-24T13:08:17;24.40;99.90
59923;DHT22;45778;51.142;3.732;2023-08-24T13:10:42;24.60;99.90
59923;DHT22;45778;51.142;3.732;2023-08-24T13:13:08;24.40;99.90
59923;DHT22;45778;51.142;3.732;2023-08-24T13:15:34;24.40;99.90
59923;DHT22;45778;51.142;3.732;2023-08-24T13:17:59;24.50;99.90
59923;DHT22;45778;51.142;3.732;2023-08-24T13:20:25;24.70;99.90
59923;DHT22;45778;51.142;3.732;2023-08-24T13:22:52;24.80;99.90
59923;DHT22;45778;51.142;3.732;2023-08-24T13:25:18;25.20;99.90
59923;DHT22;45778;51.142;3.732;2023-08-24T13:27:44;25.20;99.90
59923;DHT22;45778;51.142;3.732;2023-08-24T13:30:10;25.00;99.90
59923;DHT22;45778;51.142;3.732;2023-08-24T13:32:35;24.80;99.90
59923;DHT22;45778;51.142;3.732;2023-08-24T13:35:02;25.00;99.90
59923;DHT22;45778;51.142;3.732;2023-08-24T13:37:28;24.70;99.90
59923;DHT22;45778;51.142;3.732;2023-08-24T13:39:54;24.80;99.90
59923;DHT22;45778;51.142;3.732;2023-08-24T13:42:20;25.20;99.90
59923;DHT22;45778;51.142;3.732;2023-08-24T13:44:46;25.30;99.90
59923;DHT22;45778;51.142;3.732;2023-08-24T13:47:12;25.20;99.90
59923;DHT22;45778;51.142;3.732;2023-08-24T13:49:38;25.40;99.90
59923;DHT22;45778;51.142;3.732;2023-08-24T13:52:04;25.20;99.90
59923;DHT22;45778;51.142;3.732;2023-08-24T13:54:30;25.20;99.90
59923;DHT22;45778;51.142;3.732;2023-08-24T13:56:56;24.80;99.90
59923;DHT22;45778;51.142;3.732;2023-08-24T13:59:22;24.70;99.90
59923;DHT22;45778;51.142;3.732;2023-08-24T14:01:48;24.70;99.90
59923;DHT22;45778;51.142;3.732;2023-08-24T14:04:13;24.60;99.90
59923;DHT22;45778;51.142;3.732;2023-08-24T14:06:39;24.50;99.90
59923;DHT22;45778;51.142;3.732;2023-08-24T14:09:05;24.40;99.90
59923;DHT22;45778;51.142;3.732;2023-08-24T14:11:31;24.20;99.90
59923;DHT22;45778;51.142;3.732;2023-08-24T14:13:58;24.20;99.90
59923;DHT22;45778;51.142;3.732;2023-08-24T14:16:24;24.20;99.90
59923;DHT22;45778;51.142;3.732;2023-08-24T14:18:50;24.00;99.90
59923;DHT22;45778;51.142;3.732;2023-08-24T14:21:16;24.10;99.90
59923;DHT22;45778;51.142;3.732;2023-08-24T14:23:42;24.20;99.90
59923;DHT22;45778;51.142;3.732;2023-08-24T14:26:08;24.20;99.90
59923;DHT22;45778;51.142;3.732;2023-08-24T14:28:55;24.10;99.90
59923;DHT22;45778;51.142;3.732;2023-08-24T14:31:25;24.10;99.90
59923;DHT22;45778;51.142;3.732;2023-08-24T14:33:51;24.00;99.90
59923;DHT22;45778;51.142;3.732;2023-08-24T14:36:18;24.10;99.90
59923;DHT22;45778;51.142;3.732;2023-08-24T14:38:44;24.60;99.90
59923;DHT22;45778;51.142;3.732;2023-08-24T14:41:11;24.70;99.90
59923;DHT22;45778;51.142;3.732;2023-08-24T14:43:38;25.00;99.90
59923;DHT22;45778;51.142;3.732;2023-08-24T14:46:03;25.30;99.90
59923;DHT22;45778;51.142;3.732;2023-08-24T14:48:30;25.40;99.90
59923;DHT22;45778;51.142;3.732;2023-08-24T14:50:56;25.50;99.90
59923;DHT22;45778;51.142;3.732;2023-08-24T14:53:25;25.40;99.90
59923;DHT22;45778;51.142;3.732;2023-08-24T14:55:54;25.60;99.90
59923;DHT22;45778;51.142;3.732;2023-08-24T14:58:24;25.90;99.90
59923;DHT22;45778;51.142;3.732;2023-08-24T15:00:52;25.90;99.90
59923;DHT22;45778;51.142;3.732;2023-08-24T15:03:18;25.80;99.90
59923;DHT22;45778;51.142;3.732;2023-08-24T15:05:46;26.30;99.90
59923;DHT22;45778;51.142;3.732;2023-08-24T15:08:12;26.30;99.90
59923;DHT22;45778;51.142;3.732;2023-08-24T15:10:38;25.70;99.90
59923;DHT22;45778;51.142;3.732;2023-08-24T15:13:04;25.90;99.90
59923;DHT22;45778;51.142;3.732;2023-08-24T15:15:31;25.90;99.90
59923;DHT22;45778;51.142;3.732;2023-08-24T15:17:56;25.90;99.90
59923;DHT22;45778;51.142;3.732;2023-08-24T15:20:22;25.90;99.90
59923;DHT22;45778;51.142;3.732;2023-08-24T15:22:48;26.10;99.90
59923;DHT22;45778;51.142;3.732;2023-08-24T15:25:14;26.30;99.90
59923;DHT22;45778;51.142;3.732;2023-08-24T15:27:39;25.90;99.90
59923;DHT22;45778;51.142;3.732;2023-08-24T15:30:05;26.00;99.90
59923;DHT22;45778;51.142;3.732;2023-08-24T15:32:32;26.10;99.90
59923;DHT22;45778;51.142;3.732;2023-08-24T15:34:58;27.20;99.90
59923;DHT22;45778;51.142;3.732;2023-08-24T15:37:25;28.50;99.90
59923;DHT22;45778;51.142;3.732;2023-08-24T15:39:50;29.10;99.90